Time;durP1;ratioP1;P1;durP2;ratioP2;P2;SDS_P1;SDS_P2;PMS_P1;PMS_P2;Temp;Humidity;BMP_temperature;BMP_pressure;BME280_temperature;BME280_humidity;BME280_pressure;Samples;Min_cycle;Max_cycle;Signal;HPM_P1;HPM_P2
2021/06/09 00:01:09;;;;;;;10.18;5.28;;;21.80;70.40;;;;;;5058711;28;20028;-74
2021/06/09 00:03:34;;;;;;;10.15;4.90;;;21.60;70.70;;;;;;5076925;28;20409;-73
2021/06/09 00:06:00;;;;;;;10.07;5.50;;;21.50;70.70;;;;;;5076826;28;20503;-74
2021/06/09 00:08:26;;;;;;;12.43;4.85;;;21.40;71.00;;;;;;5076834;28;20487;-73
2021/06/09 00:10:56;;;;;;;12.93;5.20;;;21.30;71.20;;;;;;5058235;28;20029;-73
2021/06/09 00:13:24;;;;;;;11.27;5.43;;;21.30;71.70;;;;;;5058259;28;20032;-72
2021/06/09 00:15:51;;;;;;;10.90;5.00;;;21.30;71.40;;;;;;5075948;28;20477;-73
2021/06/09 00:18:16;;;;;;;11.15;4.82;;;21.40;71.20;;;;;;5076356;28;20025;-73
2021/06/09 00:20:42;;;;;;;12.90;4.60;;;21.40;71.30;;;;;;5076024;28;20431;-73
2021/06/09 00:23:11;;;;;;;12.82;4.78;;;21.30;71.70;;;;;;5057204;28;20079;-74
2021/06/09 00:25:38;;;;;;;9.60;4.28;;;21.30;71.30;;;;;;5074317;28;20377;-74
2021/06/09 00:28:05;;;;;;;9.40;5.03;;;21.10;71.80;;;;;;5074823;28;20036;-74
2021/06/09 00:30:33;;;;;;;12.15;4.65;;;21.20;71.60;;;;;;5074893;28;20013;-74
2021/06/09 00:33:03;;;;;;;7.97;5.00;;;21.10;71.80;;;;;;5056856;28;20051;-74
2021/06/09 00:35:29;;;;;;;13.13;4.85;;;21.00;71.90;;;;;;5056351;28;20049;-73
2021/06/09 00:37:55;;;;;;;15.02;5.15;;;21.10;72.10;;;;;;5074135;28;20040;-73
2021/06/09 00:40:22;;;;;;;12.00;4.63;;;21.10;71.60;;;;;;5074675;28;20020;-73
2021/06/09 00:43:13;;;;;;;7.90;4.35;;;21.10;71.60;;;;;;5074281;28;20056;-73
2021/06/09 00:45:46;;;;;;;11.55;4.57;;;21.30;71.70;;;;;;5074466;28;20029;-73
2021/06/09 00:48:13;;;;;;;9.10;4.45;;;21.30;71.50;;;;;;5074465;28;20020;-73
2021/06/09 00:50:39;;;;;;;8.00;4.47;;;21.20;71.30;;;;;;5074343;28;20062;-73
2021/06/09 00:55:50;;;;;;;9.68;3.97;;;21.10;71.70;;;;;;5074472;28;20472;-73
2021/06/09 00:58:17;;;;;;;13.85;5.43;;;21.30;71.20;;;;;;5074290;28;20024;-72
2021/06/09 01:00:42;;;;;;;11.43;4.93;;;21.40;70.60;;;;;;5056199;28;20024;-73
2021/06/09 01:03:08;;;;;;;10.95;4.68;;;21.30;71.00;;;;;;5074347;28;20025;-73
2021/06/09 01:05:36;;;;;;;11.23;4.78;;;21.30;71.00;;;;;;5074491;28;20056;-72
2021/06/09 01:08:06;;;;;;;8.65;4.32;;;21.30;71.10;;;;;;5056589;28;20024;-74
2021/06/09 01:10:32;;;;;;;9.95;4.85;;;21.40;70.80;;;;;;5074264;28;20078;-73
2021/06/09 01:13:00;;;;;;;9.63;4.65;;;21.40;70.60;;;;;;5056665;28;20074;-74
2021/06/09 01:15:27;;;;;;;8.23;5.28;;;21.20;70.70;;;;;;5074254;28;20009;-75
2021/06/09 01:17:53;;;;;;;10.35;4.97;;;21.20;71.00;;;;;;5074395;28;20032;-74
2021/06/09 01:20:20;;;;;;;7.60;4.78;;;21.10;71.10;;;;;;5074247;28;20021;-73
2021/06/09 01:22:46;;;;;;;6.60;4.43;;;21.10;71.50;;;;;;5041675;28;145672;-73
2021/06/09 01:25:13;;;;;;;9.90;5.32;;;21.20;71.30;;;;;;5049369;28;20434;-73
2021/06/09 01:27:39;;;;;;;8.63;5.80;;;21.10;71.00;;;;;;5074617;28;20032;-74
2021/06/09 01:30:08;;;;;;;11.43;5.90;;;21.10;71.30;;;;;;5075049;28;20020;-74
2021/06/09 01:32:34;;;;;;;14.60;6.18;;;20.80;71.70;;;;;;5074330;28;20067;-72
2021/06/09 01:35:01;;;;;;;11.18;5.75;;;20.80;71.90;;;;;;5056817;28;20428;-72
2021/06/09 01:37:27;;;;;;;11.40;5.80;;;20.80;71.90;;;;;;5056476;28;20078;-73
2021/06/09 01:39:55;;;;;;;7.80;5.43;;;20.90;71.60;;;;;;5074521;28;20081;-73
2021/06/09 01:42:28;;;;;;;15.73;5.70;;;21.00;71.40;;;;;;5074931;28;20028;-73
2021/06/09 01:44:54;;;;;;;16.98;5.53;;;21.00;72.00;;;;;;5074561;28;20052;-73
2021/06/09 01:47:20;;;;;;;9.07;6.13;;;21.10;71.10;;;;;;5056599;28;20020;-73
2021/06/09 01:49:46;;;;;;;10.77;5.65;;;21.00;71.30;;;;;;5074285;28;20027;-73
2021/06/09 01:52:12;;;;;;;7.35;5.10;;;21.00;71.60;;;;;;5056389;28;20039;-72
2021/06/09 01:54:39;;;;;;;8.25;5.30;;;21.20;71.40;;;;;;5074293;28;20017;-74
2021/06/09 01:57:06;;;;;;;11.48;5.50;;;21.20;70.90;;;;;;5056462;28;20086;-73
2021/06/09 01:59:33;;;;;;;6.70;5.22;;;21.30;70.70;;;;;;5056312;28;20024;-73
2021/06/09 02:02:00;;;;;;;17.50;5.38;;;21.30;70.70;;;;;;5074397;28;20017;-73
2021/06/09 02:04:26;;;;;;;11.90;4.88;;;21.30;70.40;;;;;;5074040;28;20029;-74
2021/06/09 02:06:52;;;;;;;10.05;5.13;;;21.20;70.70;;;;;;5074000;28;20020;-73
2021/06/09 02:09:19;;;;;;;10.15;4.95;;;21.10;70.70;;;;;;5073686;28;20090;-73
2021/06/09 02:11:47;;;;;;;7.32;4.97;;;21.20;70.90;;;;;;5073977;28;20028;-73
2021/06/09 02:14:15;;;;;;;14.05;4.95;;;21.20;70.60;;;;;;5074050;28;20443;-73
2021/06/09 02:16:43;;;;;;;10.18;5.00;;;21.10;70.90;;;;;;5056056;28;20035;-74
2021/06/09 02:19:09;;;;;;;10.43;4.97;;;21.10;70.80;;;;;;5056186;28;20031;-74
2021/06/09 02:21:37;;;;;;;8.80;5.15;;;21.00;71.00;;;;;;5073344;28;20362;-73
2021/06/09 02:24:04;;;;;;;13.02;4.38;;;20.90;70.90;;;;;;5074044;28;20079;-73
2021/06/09 02:26:31;;;;;;;10.93;5.30;;;21.00;71.40;;;;;;5074162;28;20035;-74
2021/06/09 02:28:58;;;;;;;10.95;5.22;;;21.10;70.90;;;;;;5073707;28;20025;-74
2021/06/09 02:31:24;;;;;;;7.78;5.38;;;21.10;70.60;;;;;;5056177;28;20193;-72
2021/06/09 02:33:50;;;;;;;8.13;5.28;;;21.20;70.70;;;;;;5073981;28;20049;-74
2021/06/09 02:36:15;;;;;;;11.50;5.28;;;21.10;70.70;;;;;;5074052;28;20031;-74
2021/06/09 02:38:42;;;;;;;12.85;6.28;;;21.10;70.70;;;;;;5073781;28;20449;-73
2021/06/09 02:41:09;;;;;;;10.23;5.30;;;20.80;70.90;;;;;;5056159;28;20377;-73
2021/06/09 02:43:35;;;;;;;11.55;4.90;;;20.70;71.30;;;;;;5073716;28;20060;-73
2021/06/09 02:46:06;;;;;;;11.05;5.22;;;20.50;71.60;;;;;;5073572;28;20067;-72
2021/06/09 02:48:34;;;;;;;10.00;5.20;;;20.40;72.70;;;;;;5073431;28;20028;-73
2021/06/09 02:51:01;;;;;;;9.77;5.43;;;20.30;72.30;;;;;;5055437;28;20024;-72
2021/06/09 02:53:42;;;;;;;12.55;6.20;;;20.40;72.40;;;;;;5073656;28;20025;-73
2021/06/09 02:56:28;;;;;;;11.48;5.97;;;20.50;72.20;;;;;;5073499;28;20025;-73
2021/06/09 02:59:09;;;;;;;10.27;6.63;;;20.50;72.50;;;;;;5055452;28;20099;-72
2021/06/09 03:01:53;;;;;;;10.63;6.05;;;20.40;72.80;;;;;;5073525;28;20020;-74
2021/06/09 03:04:31;;;;;;;11.25;6.05;;;20.20;73.30;;;;;;5073397;28;20054;-74
2021/06/09 03:07:03;;;;;;;14.10;5.80;;;20.20;72.70;;;;;;5073226;28;20139;-72
2021/06/09 03:09:42;;;;;;;12.45;6.40;;;20.30;73.30;;;;;;5073695;28;20095;-72
2021/06/09 03:12:26;;;;;;;10.02;5.40;;;20.40;72.90;;;;;;5073196;28;20056;-73
2021/06/09 03:15:10;;;;;;;18.20;5.32;;;20.20;72.10;;;;;;5055048;28;20032;-73
2021/06/09 03:17:52;;;;;;;11.25;5.53;;;20.30;73.30;;;;;;5072755;28;20032;-73
2021/06/09 03:20:39;;;;;;;9.10;4.93;;;20.50;72.80;;;;;;5072761;28;20029;-72
2021/06/09 03:23:38;;;;;;;9.48;5.40;;;20.60;72.20;;;;;;5072480;28;20098;-74
2021/06/09 03:26:26;;;;;;;9.32;5.20;;;20.60;72.10;;;;;;5034739;28;20032;-73
2021/06/09 03:29:01;;;;;;;10.80;5.97;;;20.60;71.30;;;;;;5054565;28;20067;-72
2021/06/09 03:31:34;;;;;;;9.38;4.97;;;20.60;71.20;;;;;;5054635;28;20064;-71
2021/06/09 03:34:01;;;;;;;10.57;5.50;;;20.60;70.90;;;;;;5072847;28;20029;-73
2021/06/09 03:36:31;;;;;;;9.77;5.55;;;20.70;71.00;;;;;;5054432;28;20032;-73
2021/06/09 03:39:00;;;;;;;10.05;5.00;;;20.60;71.00;;;;;;5072548;28;20024;-73
2021/06/09 03:41:35;;;;;;;14.02;6.28;;;20.60;71.60;;;;;;5072844;28;20146;-75
2021/06/09 03:44:02;;;;;;;7.00;4.82;;;20.70;71.00;;;;;;5072773;28;20154;-73
2021/06/09 03:46:29;;;;;;;8.57;5.53;;;20.50;70.50;;;;;;5072281;28;20103;-73
2021/06/09 03:48:57;;;;;;;12.30;5.45;;;20.60;70.70;;;;;;5072816;28;20154;-72
2021/06/09 03:51:25;;;;;;;12.15;5.47;;;20.50;71.30;;;;;;5072698;28;20064;-72
2021/06/09 03:53:54;;;;;;;12.75;5.82;;;20.50;70.80;;;;;;5054387;28;20163;-73
2021/06/09 03:56:20;;;;;;;11.18;5.88;;;20.60;70.80;;;;;;5072683;28;20024;-72
2021/06/09 03:58:49;;;;;;;11.55;5.82;;;20.60;70.30;;;;;;5072620;28;20025;-73
2021/06/09 04:01:15;;;;;;;13.30;6.07;;;20.40;70.70;;;;;;5072570;28;20040;-73
2021/06/09 04:03:44;;;;;;;13.77;5.38;;;20.30;70.90;;;;;;5072528;28;20040;-73
2021/06/09 04:06:14;;;;;;;11.85;5.68;;;20.30;71.60;;;;;;5072447;28;20028;-73
2021/06/09 04:08:42;;;;;;;20.95;6.10;;;20.20;71.00;;;;;;5072644;28;20036;-74
2021/06/09 04:11:12;;;;;;;13.57;5.63;;;20.40;71.20;;;;;;5072313;28;20107;-74
2021/06/09 04:13:40;;;;;;;10.38;5.35;;;20.40;70.80;;;;;;5054340;28;20036;-73
2021/06/09 04:16:07;;;;;;;14.95;5.55;;;20.50;70.80;;;;;;5054277;28;20032;-72
2021/06/09 04:18:34;;;;;;;13.75;6.32;;;20.70;70.40;;;;;;5054299;28;20017;-73
2021/06/09 04:21:02;;;;;;;10.80;5.03;;;20.60;70.10;;;;;;5054335;28;20126;-74
2021/06/09 04:23:29;;;;;;;13.13;5.85;;;20.50;70.10;;;;;;5072050;28;20063;-72
2021/06/09 04:25:58;;;;;;;14.20;5.53;;;20.40;70.20;;;;;;5071844;28;20103;-73
2021/06/09 04:28:26;;;;;;;10.95;5.82;;;20.30;70.10;;;;;;5054229;28;20036;-72
2021/06/09 04:30:52;;;;;;;12.70;5.65;;;20.30;70.70;;;;;;5053868;28;20024;-74
2021/06/09 04:33:18;;;;;;;11.27;5.72;;;20.20;70.50;;;;;;5071998;28;20150;-75
2021/06/09 04:35:45;;;;;;;11.43;5.07;;;20.00;70.90;;;;;;5072221;28;20071;-72
2021/06/09 04:38:16;;;;;;;12.05;5.30;;;19.90;71.60;;;;;;5071948;28;20024;-73
2021/06/09 04:40:43;;;;;;;15.38;5.22;;;20.00;71.60;;;;;;5053947;28;20481;-73
2021/06/09 04:43:09;;;;;;;12.27;4.90;;;20.10;71.60;;;;;;5054200;28;20025;-72
2021/06/09 04:45:36;;;;;;;13.75;6.10;;;20.10;71.20;;;;;;5055958;28;20013;-75
2021/06/09 04:48:08;;;;;;;15.50;5.70;;;19.90;71.40;;;;;;5075694;28;20077;-74
2021/06/09 04:50:34;;;;;;;11.40;5.82;;;19.70;72.40;;;;;;5058782;28;20035;-74
2021/06/09 04:53:11;;;;;;;12.68;5.38;;;19.90;72.10;;;;;;5075472;28;20024;-72
2021/06/09 04:55:43;;;;;;;10.52;5.95;;;20.00;72.50;;;;;;5057322;28;20130;-75
2021/06/09 04:58:10;;;;;;;11.68;6.13;;;20.20;71.70;;;;;;5075612;28;20020;-74
2021/06/09 05:00:36;;;;;;;16.88;7.47;;;20.40;70.80;;;;;;5075933;28;20482;-73
2021/06/09 05:03:02;;;;;;;10.25;5.65;;;20.50;70.70;;;;;;5057820;28;20063;-74
2021/06/09 05:05:29;;;;;;;10.05;6.10;;;20.60;70.30;;;;;;5075493;28;20028;-73
2021/06/09 05:07:54;;;;;;;15.93;6.45;;;20.70;70.00;;;;;;5057404;28;20435;-74
2021/06/09 05:10:21;;;;;;;13.25;6.32;;;20.80;69.90;;;;;;5075507;28;20020;-74
2021/06/09 05:12:54;;;;;;;12.63;6.75;;;20.80;69.50;;;;;;5069542;28;20076;-73
2021/06/09 05:15:25;;;;;;;12.98;6.15;;;20.70;70.20;;;;;;5073462;28;20412;-73
2021/06/09 05:17:51;;;;;;;10.25;5.60;;;20.90;69.80;;;;;;5055296;28;20374;-72
2021/06/09 05:20:22;;;;;;;9.80;5.90;;;20.90;69.80;;;;;;5055306;28;20100;-75
2021/06/09 05:23:08;;;;;;;10.52;5.82;;;21.30;69.60;;;;;;5060120;28;20045;-73
2021/06/09 05:25:38;;;;;;;11.40;5.93;;;21.80;67.40;;;;;;5055095;28;20112;-71
2021/06/09 05:28:06;;;;;;;12.02;5.47;;;22.00;67.40;;;;;;5055185;28;20098;-73
2021/06/09 05:30:35;;;;;;;12.10;6.20;;;22.10;67.20;;;;;;5055537;28;20425;-74
2021/06/09 05:33:02;;;;;;;10.70;6.00;;;22.10;67.20;;;;;;5057066;28;20039;-76
2021/06/09 05:35:29;;;;;;;8.70;5.90;;;22.00;66.80;;;;;;5045315;28;20029;-75
2021/06/09 05:37:55;;;;;;;11.73;6.13;;;22.20;66.40;;;;;;5056508;28;20105;-76
2021/06/09 05:40:21;;;;;;;13.50;6.00;;;22.50;66.30;;;;;;5055108;28;20485;-74
2021/06/09 05:42:48;;;;;;;14.88;5.22;;;22.80;65.70;;;;;;5066867;28;20057;-75
2021/06/09 05:45:24;;;;;;;9.93;5.28;;;23.20;65.00;;;;;;5061838;28;20033;-73
2021/06/09 05:47:50;;;;;;;12.15;7.10;;;23.40;64.40;;;;;;5059874;28;20067;-73
2021/06/09 05:50:18;;;;;;;9.98;6.55;;;23.70;63.30;;;;;;5059708;28;20025;-73
2021/06/09 05:52:45;;;;;;;12.43;5.75;;;23.90;63.10;;;;;;5041289;28;20052;-73
2021/06/09 05:55:16;;;;;;;10.57;5.65;;;24.00;62.90;;;;;;5054332;28;20029;-73
2021/06/09 05:57:43;;;;;;;9.63;5.43;;;24.20;62.20;;;;;;5053154;28;20025;-74
2021/06/09 06:00:09;;;;;;;9.70;5.55;;;24.30;61.50;;;;;;5054372;28;20028;-73
2021/06/09 06:02:36;;;;;;;9.95;5.55;;;24.20;61.60;;;;;;5054270;28;20055;-73
2021/06/09 06:05:03;;;;;;;12.63;5.20;;;24.30;61.70;;;;;;5054082;28;20450;-74
2021/06/09 06:07:30;;;;;;;11.57;4.55;;;24.50;60.90;;;;;;5053815;28;20029;-72
2021/06/09 06:09:58;;;;;;;13.65;5.75;;;24.80;60.60;;;;;;5054318;28;20018;-72
2021/06/09 06:12:25;;;;;;;11.27;5.28;;;24.90;60.20;;;;;;5051144;28;20147;-74
2021/06/09 06:14:52;;;;;;;15.02;5.13;;;25.00;59.70;;;;;;5073773;28;20062;-73
2021/06/09 06:17:18;;;;;;;12.25;5.00;;;25.10;59.50;;;;;;5073192;28;20029;-74
2021/06/09 06:19:48;;;;;;;14.75;5.20;;;25.40;59.30;;;;;;5061665;28;20025;-72
2021/06/09 06:22:15;;;;;;;13.98;5.05;;;25.50;58.70;;;;;;5072982;28;20045;-76
2021/06/09 06:24:46;;;;;;;12.35;4.93;;;25.70;58.30;;;;;;5072760;28;20038;-77
2021/06/09 06:27:13;;;;;;;12.30;5.32;;;25.70;58.00;;;;;;5073115;28;20074;-75
2021/06/09 06:29:40;;;;;;;14.90;5.47;;;25.50;58.20;;;;;;5073075;28;20388;-76
2021/06/09 06:32:07;;;;;;;10.18;4.75;;;25.50;58.60;;;;;;5073207;28;20116;-76
2021/06/09 06:34:37;;;;;;;12.10;4.80;;;25.40;58.70;;;;;;5073051;28;20390;-74
2021/06/09 06:37:05;;;;;;;13.55;5.25;;;25.50;58.20;;;;;;5073130;28;20028;-74
2021/06/09 06:39:31;;;;;;;11.90;4.88;;;25.80;58.10;;;;;;5073076;28;20073;-73
2021/06/09 06:41:57;;;;;;;10.88;4.50;;;25.90;57.80;;;;;;5072922;28;20059;-73
2021/06/09 06:44:23;;;;;;;11.48;4.93;;;26.10;57.30;;;;;;5054903;28;20021;-72
2021/06/09 06:46:49;;;;;;;12.30;4.68;;;26.20;56.90;;;;;;5055083;28;20032;-75
2021/06/09 06:49:17;;;;;;;9.52;4.40;;;26.20;56.90;;;;;;5072928;28;20016;-75
2021/06/09 06:51:50;;;;;;;10.73;4.72;;;25.90;57.20;;;;;;5054820;28;20058;-74
2021/06/09 06:54:16;;;;;;;10.07;4.70;;;25.60;57.80;;;;;;5073083;28;20024;-75
2021/06/09 06:56:44;;;;;;;13.10;4.38;;;25.30;58.20;;;;;;5072557;28;20371;-75
2021/06/09 06:59:10;;;;;;;9.77;5.20;;;25.20;58.30;;;;;;5072137;28;20070;-75
2021/06/09 07:01:37;;;;;;;10.13;5.78;;;25.10;58.70;;;;;;5072337;28;20029;-75
2021/06/09 07:04:04;;;;;;;9.77;5.38;;;24.80;59.10;;;;;;5072055;28;20040;-72
2021/06/09 07:06:33;;;;;;;10.23;5.50;;;24.80;59.20;;;;;;5072109;28;20378;-73
2021/06/09 07:09:00;;;;;;;9.38;5.40;;;24.80;59.90;;;;;;5071645;28;20557;-75
2021/06/09 07:11:26;;;;;;;14.07;5.65;;;24.90;59.60;;;;;;5072307;28;20024;-73
2021/06/09 07:13:52;;;;;;;15.27;5.88;;;25.00;59.40;;;;;;5072556;28;20020;-74
2021/06/09 07:16:21;;;;;;;11.88;5.18;;;24.90;59.70;;;;;;5072126;28;20047;-73
2021/06/09 07:18:47;;;;;;;10.73;5.82;;;24.80;59.80;;;;;;5072208;28;20040;-75
2021/06/09 07:21:17;;;;;;;9.10;5.45;;;25.00;59.90;;;;;;5054746;28;20025;-73
2021/06/09 07:23:44;;;;;;;11.90;5.32;;;25.00;59.50;;;;;;5071950;28;20048;-73
2021/06/09 07:26:14;;;;;;;10.38;5.72;;;25.00;59.40;;;;;;5072303;28;20052;-76
2021/06/09 07:28:55;;;;;;;7.72;4.70;;;25.20;59.20;;;;;;5072386;28;20066;-74
2021/06/09 07:31:32;;;;;;;13.20;5.20;;;25.30;58.50;;;;;;5072296;28;20428;-76
2021/06/09 07:33:58;;;;;;;9.75;4.93;;;25.20;58.70;;;;;;5072448;28;20028;-72
2021/06/09 07:36:29;;;;;;;9.75;5.22;;;25.30;58.50;;;;;;5054456;28;20035;-73
2021/06/09 07:39:04;;;;;;;12.05;4.93;;;25.50;57.90;;;;;;5053710;28;20033;-73
2021/06/09 07:41:32;;;;;;;11.23;5.32;;;25.50;57.60;;;;;;5072357;28;20028;-75
2021/06/09 07:44:01;;;;;;;10.18;5.35;;;25.50;57.70;;;;;;5053739;28;20024;-73
2021/06/09 07:46:30;;;;;;;11.38;5.72;;;25.20;57.90;;;;;;5071545;28;20078;-74
2021/06/09 07:48:58;;;;;;;14.35;6.13;;;25.00;58.00;;;;;;5071669;28;20103;-74
2021/06/09 07:51:26;;;;;;;9.32;5.43;;;25.10;58.70;;;;;;5054036;28;20040;-75
2021/06/09 07:53:54;;;;;;;15.98;7.38;;;25.10;58.70;;;;;;5072166;28;20052;-74
2021/06/09 07:56:21;;;;;;;14.20;6.63;;;25.00;59.10;;;;;;5053774;28;20505;-73
2021/06/09 07:58:50;;;;;;;14.68;6.20;;;24.70;59.50;;;;;;5053959;28;20037;-73
2021/06/09 08:01:17;;;;;;;9.85;6.97;;;24.80;59.80;;;;;;5053991;28;20381;-75
2021/06/09 08:03:43;;;;;;;14.30;6.93;;;24.70;59.50;;;;;;5054254;28;20033;-77
2021/06/09 08:06:10;;;;;;;12.48;7.05;;;24.80;60.10;;;;;;5071711;28;20136;-74
2021/06/09 08:08:36;;;;;;;12.82;7.07;;;25.10;59.80;;;;;;5071788;28;20027;-75
2021/06/09 08:11:01;;;;;;;13.38;6.72;;;25.30;59.70;;;;;;5071807;28;20029;-74
2021/06/09 08:13:28;;;;;;;13.13;6.72;;;25.50;59.20;;;;;;5071647;28;20119;-73
2021/06/09 08:15:54;;;;;;;14.48;6.75;;;25.60;59.10;;;;;;5071892;28;20024;-73
2021/06/09 08:18:20;;;;;;;10.90;6.75;;;25.70;58.90;;;;;;5071731;28;20047;-76
2021/06/09 08:21:04;;;;;;;8.93;6.63;;;25.60;58.70;;;;;;5074346;28;20095;-74
2021/06/09 08:23:30;;;;;;;14.93;7.30;;;25.50;59.10;;;;;;5075913;28;20052;-78
2021/06/09 08:25:55;;;;;;;12.25;7.47;;;25.60;58.60;;;;;;5075865;28;20054;-77
2021/06/09 08:28:21;;;;;;;10.82;7.25;;;25.60;58.90;;;;;;5075866;28;20025;-75
2021/06/09 08:30:47;;;;;;;10.43;6.88;;;25.60;58.60;;;;;;5058100;28;20032;-72
2021/06/09 08:33:13;;;;;;;8.02;5.95;;;25.50;58.60;;;;;;5075396;28;20359;-76
2021/06/09 08:35:38;;;;;;;12.18;6.50;;;25.60;58.40;;;;;;5075580;28;20097;-74
2021/06/09 08:38:04;;;;;;;12.48;5.78;;;25.70;57.90;;;;;;5075047;28;20118;-72
2021/06/09 08:40:33;;;;;;;10.10;5.40;;;25.70;57.60;;;;;;5057470;28;20044;-73
2021/06/09 08:42:59;;;;;;;7.88;5.35;;;25.60;57.10;;;;;;5075616;28;20029;-75
2021/06/09 08:45:25;;;;;;;12.85;5.68;;;25.60;57.10;;;;;;5057205;28;20115;-73
2021/06/09 08:47:52;;;;;;;9.32;6.15;;;25.60;57.20;;;;;;5075363;28;20078;-73
2021/06/09 08:50:19;;;;;;;12.80;5.85;;;25.70;57.00;;;;;;5074833;28;20074;-74
2021/06/09 08:52:47;;;;;;;7.80;4.65;;;25.50;57.00;;;;;;5075284;28;20366;-74
2021/06/09 08:55:14;;;;;;;11.68;4.68;;;25.70;56.90;;;;;;5075543;28;20466;-74
2021/06/09 08:57:41;;;;;;;10.77;5.85;;;25.80;56.10;;;;;;5075591;28;20189;-76
2021/06/09 09:00:09;;;;;;;11.77;5.65;;;25.70;56.10;;;;;;5074986;28;20028;-75
2021/06/09 09:02:35;;;;;;;9.15;5.13;;;25.80;56.60;;;;;;5074816;28;20052;-73
2021/06/09 09:05:02;;;;;;;8.63;5.13;;;25.80;57.00;;;;;;5081524;28;20032;-74
2021/06/09 09:07:28;;;;;;;11.95;5.70;;;25.90;57.10;;;;;;5079169;28;20045;-73
2021/06/09 09:10:00;;;;;;;16.67;5.65;;;26.00;56.70;;;;;;5060202;28;20047;-73
2021/06/09 09:12:27;;;;;;;11.82;5.32;;;26.10;56.60;;;;;;5076449;28;20044;-74
2021/06/09 09:14:53;;;;;;;13.32;4.95;;;26.00;56.50;;;;;;5076087;28;20065;-72
2021/06/09 09:17:19;;;;;;;10.50;5.63;;;26.10;56.60;;;;;;5057843;28;20413;-72
2021/06/09 09:19:46;;;;;;;17.23;5.22;;;26.30;56.30;;;;;;5076317;28;20321;-74
2021/06/09 09:22:23;;;;;;;11.02;4.55;;;26.20;55.80;;;;;;5075419;28;20017;-73
2021/06/09 09:24:50;;;;;;;8.98;3.88;;;26.30;54.90;;;;;;5076118;28;20039;-75
2021/06/09 09:27:38;;;;;;;10.95;3.90;;;26.10;53.60;;;;;;5076001;28;20036;-73
2021/06/09 09:30:05;;;;;;;10.20;4.15;;;26.10;53.10;;;;;;5075356;28;20036;-71
2021/06/09 09:32:31;;;;;;;7.15;3.83;;;25.90;52.60;;;;;;5076068;28;20040;-76
2021/06/09 09:35:12;;;;;;;8.13;4.47;;;26.10;52.30;;;;;;5076182;28;20044;-76
2021/06/09 09:37:38;;;;;;;8.70;4.05;;;26.30;51.80;;;;;;5075802;28;20028;-74
2021/06/09 09:40:17;;;;;;;6.63;3.85;;;26.20;51.70;;;;;;5075304;28;20024;-75
2021/06/09 09:42:49;;;;;;;9.60;4.50;;;26.30;50.90;;;;;;5074977;28;20078;-73
2021/06/09 09:45:18;;;;;;;9.50;4.53;;;26.40;49.50;;;;;;5040047;28;20041;-73
2021/06/09 09:48:14;;;;;;;8.27;4.18;;;26.60;49.30;;;;;;5074905;28;20036;-77
2021/06/09 09:50:44;;;;;;;13.77;4.53;;;26.80;48.60;;;;;;5053226;28;20037;-73
2021/06/09 09:53:24;;;;;;;9.13;4.05;;;27.00;49.70;;;;;;5074791;28;20078;-74
2021/06/09 09:56:10;;;;;;;8.75;4.00;;;26.80;49.00;;;;;;5074967;28;20048;-73
2021/06/09 09:59:03;;;;;;;5.95;3.92;;;26.70;49.10;;;;;;5056234;28;20046;-74
2021/06/09 10:01:31;;;;;;;9.65;3.92;;;26.80;48.30;;;;;;5064341;28;20486;-74
2021/06/09 10:03:59;;;;;;;5.60;3.97;;;26.90;49.30;;;;;;5074069;28;20036;-74
2021/06/09 10:06:28;;;;;;;7.60;3.90;;;26.90;48.60;;;;;;5073704;28;20102;-74
2021/06/09 10:08:57;;;;;;;6.95;3.72;;;26.90;49.10;;;;;;5073479;28;20442;-75
2021/06/09 10:11:25;;;;;;;6.85;3.92;;;26.90;48.50;;;;;;5055827;28;20146;-73
2021/06/09 10:13:51;;;;;;;8.13;4.43;;;26.80;49.20;;;;;;5073869;28;20033;-74
2021/06/09 10:16:31;;;;;;;7.10;3.40;;;26.90;49.40;;;;;;5073550;28;20372;-75
2021/06/09 10:19:04;;;;;;;7.90;3.78;;;26.80;47.90;;;;;;5073529;28;20078;-74
2021/06/09 10:21:31;;;;;;;8.82;3.72;;;26.90;47.50;;;;;;5073745;28;20044;-74
2021/06/09 10:24:09;;;;;;;6.80;3.00;;;26.90;48.70;;;;;;5073328;28;20063;-72
2021/06/09 10:26:36;;;;;;;5.13;3.05;;;26.90;48.40;;;;;;5073352;28;20469;-74
2021/06/09 10:29:12;;;;;;;6.40;2.97;;;26.90;48.10;;;;;;5073193;28;20025;-74
2021/06/09 10:32:01;;;;;;;6.18;3.47;;;27.00;46.80;;;;;;5073778;28;20036;-72
2021/06/09 10:34:29;;;;;;;7.47;3.97;;;27.20;48.40;;;;;;5068378;28;20031;-75
2021/06/09 10:36:57;;;;;;;7.05;3.60;;;27.30;48.40;;;;;;5072953;28;20075;-74
2021/06/09 10:39:25;;;;;;;9.70;4.00;;;27.30;47.80;;;;;;5073009;28;20016;-72
2021/06/09 10:41:53;;;;;;;8.85;3.80;;;27.10;48.00;;;;;;5055065;28;20412;-74
2021/06/09 10:44:23;;;;;;;6.43;3.50;;;27.20;48.50;;;;;;5072293;28;20044;-73
2021/06/09 10:46:53;;;;;;;7.78;3.83;;;27.20;47.90;;;;;;5054757;28;20488;-73
2021/06/09 10:49:20;;;;;;;10.60;4.47;;;27.30;47.80;;;;;;5073007;28;20027;-72
2021/06/09 10:51:51;;;;;;;8.10;4.53;;;27.50;47.90;;;;;;5073027;28;20459;-73
2021/06/09 10:54:18;;;;;;;9.35;4.40;;;27.50;48.70;;;;;;5072835;28;20051;-74
2021/06/09 10:56:46;;;;;;;15.27;4.50;;;27.40;48.70;;;;;;5072486;28;20398;-74
2021/06/09 10:59:21;;;;;;;9.10;5.07;;;27.40;48.70;;;;;;5055027;28;20024;-75
2021/06/09 11:01:51;;;;;;;6.72;4.50;;;27.50;48.80;;;;;;5054860;28;20025;-75
2021/06/09 11:04:17;;;;;;;9.55;4.47;;;27.50;49.00;;;;;;5072794;28;20024;-76
2021/06/09 11:06:44;;;;;;;9.23;4.20;;;27.50;48.70;;;;;;5072575;28;20023;-72
2021/06/09 11:09:28;;;;;;;7.65;4.35;;;27.60;48.80;;;;;;5072648;28;20033;-76
2021/06/09 11:12:12;;;;;;;6.22;4.18;;;27.90;47.10;;;;;;5054431;28;20477;-75
2021/06/09 11:14:58;;;;;;;8.80;4.57;;;28.10;48.10;;;;;;5072641;28;20028;-74
2021/06/09 11:17:42;;;;;;;10.07;4.78;;;28.10;47.40;;;;;;5054203;28;20473;-73
2021/06/09 11:20:14;;;;;;;7.22;4.70;;;28.00;46.30;;;;;;5072456;28;20025;-73
2021/06/09 11:22:52;;;;;;;8.10;4.60;;;27.90;47.40;;;;;;5072223;28;20324;-74
2021/06/09 11:25:20;;;;;;;6.97;4.10;;;28.00;48.50;;;;;;5072165;28;20067;-75
2021/06/09 11:27:52;;;;;;;6.28;3.80;;;28.10;47.60;;;;;;5054223;28;20020;-73
2021/06/09 11:30:23;;;;;;;6.20;3.78;;;28.00;46.90;;;;;;5072392;28;20389;-75
2021/06/09 11:32:51;;;;;;;10.00;4.57;;;28.00;47.50;;;;;;5072020;28;20074;-75
2021/06/09 11:35:20;;;;;;;5.68;4.00;;;28.00;46.60;;;;;;5072469;28;20058;-74
2021/06/09 11:38:12;;;;;;;9.98;4.40;;;28.20;46.80;;;;;;5053925;28;20028;-73
2021/06/09 11:40:57;;;;;;;7.68;4.55;;;28.40;45.70;;;;;;5072174;28;20478;-73
2021/06/09 11:43:29;;;;;;;10.73;4.47;;;28.50;45.40;;;;;;5072308;28;20078;-72
2021/06/09 11:46:00;;;;;;;6.68;4.30;;;28.60;46.90;;;;;;5072153;28;20021;-72
2021/06/09 11:48:28;;;;;;;6.40;4.28;;;28.80;46.80;;;;;;5072190;28;20044;-73
2021/06/09 11:51:16;;;;;;;9.25;4.53;;;28.90;46.70;;;;;;5072042;28;20024;-73
2021/06/09 11:53:45;;;;;;;7.88;4.50;;;29.00;45.80;;;;;;5072647;28;20523;-74
2021/06/09 11:56:31;;;;;;;7.95;4.38;;;29.10;47.10;;;;;;5075922;28;20016;-73
2021/06/09 11:59:00;;;;;;;6.82;4.43;;;29.30;48.90;;;;;;5058072;28;20469;-71
2021/06/09 12:01:35;;;;;;;11.75;4.90;;;29.20;49.30;;;;;;5075875;28;20012;-73
2021/06/09 12:04:17;;;;;;;9.75;4.18;;;29.20;47.90;;;;;;5075691;28;20123;-74
2021/06/09 12:06:57;;;;;;;8.50;4.43;;;29.10;47.10;;;;;;5075723;28;20021;-72
2021/06/09 12:09:24;;;;;;;9.48;4.20;;;29.00;47.40;;;;;;5057926;28;20036;-75
2021/06/09 12:11:53;;;;;;;6.15;4.05;;;29.00;48.60;;;;;;5076193;28;20056;-73
2021/06/09 12:14:23;;;;;;;6.18;3.97;;;28.90;48.30;;;;;;5076000;28;20107;-74
2021/06/09 12:16:51;;;;;;;6.32;3.97;;;29.00;46.90;;;;;;5075936;28;20107;-73
2021/06/09 12:19:35;;;;;;;6.15;3.53;;;28.90;49.20;;;;;;5075763;28;20024;-73
2021/06/09 12:22:11;;;;;;;6.68;3.45;;;28.90;47.50;;;;;;5075690;28;20025;-74
2021/06/09 12:24:38;;;;;;;6.63;4.00;;;28.90;48.20;;;;;;5075946;28;20058;-72
2021/06/09 12:27:08;;;;;;;5.68;3.80;;;28.90;48.10;;;;;;5075731;28;20025;-74
2021/06/09 12:29:36;;;;;;;7.13;3.80;;;28.80;46.90;;;;;;5058242;28;20122;-76
2021/06/09 12:32:16;;;;;;;9.35;3.35;;;28.80;47.90;;;;;;5075378;28;20044;-74
2021/06/09 12:34:42;;;;;;;6.07;3.28;;;28.80;47.90;;;;;;5075751;28;20114;-73
2021/06/09 12:37:09;;;;;;;4.78;3.10;;;28.80;47.60;;;;;;5075430;28;20060;-73
2021/06/09 12:39:38;;;;;;;9.23;3.75;;;28.90;47.70;;;;;;5057280;28;20070;-74
2021/06/09 12:42:14;;;;;;;5.20;3.95;;;28.90;47.30;;;;;;5075333;28;20032;-74
2021/06/09 12:45:05;;;;;;;5.82;3.72;;;29.00;46.90;;;;;;5075531;28;20046;-75
2021/06/09 12:47:39;;;;;;;11.68;3.85;;;29.10;46.90;;;;;;5075087;28;20021;-73
2021/06/09 12:50:20;;;;;;;11.88;3.08;;;29.20;46.60;;;;;;5075297;28;20067;-74
2021/06/09 12:52:48;;;;;;;7.00;3.88;;;29.20;45.60;;;;;;5074928;28;20028;-72
2021/06/09 12:55:18;;;;;;;7.93;3.80;;;29.40;46.70;;;;;;5074993;28;20028;-73
2021/06/09 12:57:44;;;;;;;6.97;3.25;;;29.40;46.50;;;;;;5056960;28;20029;-72